This is the latest recevied weather packets stored in our database for station/object APPOWX. If no packets are shown the sender has not sent any weather packets the latest 1 day(s).
| Time | Temp. | Humidity | Pressure | Rain* | Wind** | Luminosity | Snow |
|---|---|---|---|---|---|---|---|
| 1778019999 | 24.44° C | 40% | 1014.9 hPa | 0 mm | 0 m/s | - | - |
| 1778019939 | 24.44° C | 39% | 1015 hPa | 0 mm | 0 m/s | - | - |
| 1778019878 | 24.44° C | 38% | 1014.9 hPa | 0 mm | 0.89 m/s, 84° | - | - |
| 1778019818 | 24.44° C | 38% | 1014.9 hPa | 0 mm | 0.89 m/s, 53° | - | - |
| 1778019759 | 24.44° C | 38% | 1014.8 hPa | 0 mm | 0.89 m/s, 70° | - | - |
| 1778019697 | 24.44° C | 38% | 1014.8 hPa | 0 mm | 0.45 m/s, 61° | - | - |
| 1778019638 | 24.44° C | 38% | 1015 hPa | 0 mm | 0.89 m/s, 54° | - | - |
| 1778019578 | 24.44° C | 37% | 1015 hPa | 0 mm | 1.34 m/s, 64° | - | - |
| 1778019518 | 24.44° C | 38% | 1014.9 hPa | 0 mm | 0.45 m/s, 23° | - | - |
| 1778019457 | 25° C | 38% | 1014.9 hPa | 0 mm | 0.45 m/s, 62° | - | - |
| 1778019397 | 25° C | 37% | 1014.7 hPa | 0 mm | 1.79 m/s, 351° | - | - |
| 1778019337 | 25° C | 38% | 1014.9 hPa | 0 mm | 1.79 m/s, 31° | - | - |
| 1778019278 | 25° C | 38% | 1014.7 hPa | 0 mm | 1.34 m/s, 8° | - | - |
| 1778019217 | 25° C | 38% | 1014.7 hPa | 0 mm | 0.89 m/s, 57° | - | - |
| 1778019157 | 25° C | 38% | 1014.8 hPa | 0 mm | 0.45 m/s, 89° | - | - |
| 1778019097 | 25° C | 38% | 1014.6 hPa | 0 mm | 0.45 m/s, 76° | - | - |
| 1778019037 | 25° C | 39% | 1014.5 hPa | 0 mm | 0.89 m/s, 24° | - | - |
| 1778018977 | 25° C | 38% | 1014.8 hPa | 0 mm | 0.89 m/s, 90° | - | - |
| 1778018917 | 25° C | 37% | 1014.7 hPa | 0 mm | 0.89 m/s, 18° | - | - |
| 1778018857 | 25° C | 39% | 1014.8 hPa | 0 mm | 1.34 m/s, 62° | - | - |
| 1778018797 | 25° C | 39% | 1014.7 hPa | 0 mm | 0.89 m/s, 99° | - | - |
| 1778018737 | 25° C | 38% | 1014.4 hPa | 0 mm | 0.45 m/s, 53° | - | - |
| 1778018677 | 25° C | 40% | 1014.7 hPa | 0 mm | 1.79 m/s, 355° | - | - |
| 1778018617 | 25° C | 40% | 1014.5 hPa | 0 mm | 0.89 m/s, 100° | - | - |
| 1778018556 | 25° C | 38% | 1014.6 hPa | 0 mm | 0.89 m/s, 90° | - | - |
* Rain latest hour (hover to see other rain measurements)
** Current wind speed in m/s (hover to see current wind gust speed)